Pagrindinis puslapis
METAR-TAF:

METAR-TAF

Oro uostai :

Antofagasta, Čilė

platuma: 23-26S, ilguma: 070-26W, Aukštis: 135 m

Dabartinis oras

Ataskaita buvo paskelbta 58 minutes, ne 09:00 UTC
Vėjas 2 kt iš Šiaurės Vakarų
Temperatūra 14°C
Drėgmė 82%
Slėgis 1016 hPa
Matomumas 10 km arba daugiau
Apsiniaukę ne aukštis 2700 ft

METAR: SCFA 300900Z 32002KT 9999 OVC027 14/11 Q1016 NOSIG

Laikas: 05:58 (09:58 UTC)

Prognozė

Ataskaita buvo paskelbta 5 valandos ir 42 minutes, ne 04:16 UTC
Prognozė galioja nuo 30 metu 06 UTC su 01 metu 06 UTC
Vėjas 4 kt iš Šiaurės/Šiaurės Rytų
Matomumas 10 km arba daugiau
Apsiniaukę ne aukštis 2500 ft
Tapsmas
nuo 30 metu 17 UTC su 30 metu 19 UTC
Vėjas 10 kt iš Pietų
Mažai debesys ne aukštis 2200 ft
Tapsmas
nuo 30 metu 22 UTC su 01 metu 00 UTC
Vėjas 4 kt iš Pietų
Apsiniaukę ne aukštis 2500 ft
Tapsmas
nuo 01 metu 04 UTC su 01 metu 06 UTC
Vėjas 4 kt iš Šiaurės

TAF: SCFA 300416Z 3006/0106 02004KT 9999 OVC025 TN14/3010Z TX17/3017Z BECMG 3017/3019 19010KT FEW022 BECMG 3022/0100 18004KT OVC025 BECMG 0104/0106 36004KT

Orai ataskaitas ir orų prognozės (METAR, TAF).

turimą stotys yra geltonos ir raudonos taškus žemėlapyje.

Perkelti pele per norėdami pamatyti stoties vardą.

Tada spustelėkite, norėdami matyti oro stebėjimo ir prognozės.

Norėdami pakeisti žemėlapį: spustelėkite ant žalios mygtukų su juodo kryžiaus žemyn,; žalią mygtuką su brūkšneliu, jei norite nutolinti; arba žalių rodyklių gretimoms žemėlapius.


METAR-TAF: